sensor_id;sensor_type;location;lat;lon;timestamp;P1;durP1;ratioP1;P2;durP2;ratioP2
44048;SDS011;29717;47.028;15.470;2023-05-07T00:01:42;9.25;;;8.40;;
44048;SDS011;29717;47.028;15.470;2023-05-07T00:04:09;9.63;;;8.73;;
44048;SDS011;29717;47.028;15.470;2023-05-07T00:06:36;8.93;;;8.13;;
44048;SDS011;29717;47.028;15.470;2023-05-07T00:09:04;10.45;;;8.77;;
44048;SDS011;29717;47.028;15.470;2023-05-07T00:11:40;8.10;;;7.40;;
44048;SDS011;29717;47.028;15.470;2023-05-07T00:14:08;7.82;;;7.13;;
44048;SDS011;29717;47.028;15.470;2023-05-07T00:16:35;9.18;;;7.50;;
44048;SDS011;29717;47.028;15.470;2023-05-07T00:19:02;11.70;;;8.48;;
44048;SDS011;29717;47.028;15.470;2023-05-07T00:21:29;9.13;;;8.23;;
44048;SDS011;29717;47.028;15.470;2023-05-07T00:23:56;8.38;;;7.65;;
44048;SDS011;29717;47.028;15.470;2023-05-07T00:26:23;8.20;;;7.38;;
44048;SDS011;29717;47.028;15.470;2023-05-07T00:28:50;8.60;;;7.70;;
44048;SDS011;29717;47.028;15.470;2023-05-07T00:31:18;8.68;;;7.85;;
44048;SDS011;29717;47.028;15.470;2023-05-07T00:33:45;8.57;;;7.78;;
44048;SDS011;29717;47.028;15.470;2023-05-07T00:36:12;10.13;;;9.18;;
44048;SDS011;29717;47.028;15.470;2023-05-07T00:38:39;10.15;;;9.15;;
44048;SDS011;29717;47.028;15.470;2023-05-07T00:41:06;9.30;;;8.50;;
44048;SDS011;29717;47.028;15.470;2023-05-07T00:43:33;9.07;;;8.18;;
44048;SDS011;29717;47.028;15.470;2023-05-07T00:45:59;12.32;;;9.32;;
44048;SDS011;29717;47.028;15.470;2023-05-07T00:48:28;9.27;;;8.38;;
44048;SDS011;29717;47.028;15.470;2023-05-07T00:50:55;9.45;;;8.52;;
44048;SDS011;29717;47.028;15.470;2023-05-07T00:53:21;9.57;;;8.65;;
44048;SDS011;29717;47.028;15.470;2023-05-07T00:55:48;10.35;;;9.13;;
44048;SDS011;29717;47.028;15.470;2023-05-07T00:58:16;9.80;;;8.80;;
44048;SDS011;29717;47.028;15.470;2023-05-07T01:00:43;9.82;;;8.82;;
44048;SDS011;29717;47.028;15.470;2023-05-07T01:03:09;9.95;;;9.10;;
44048;SDS011;29717;47.028;15.470;2023-05-07T01:05:38;9.82;;;8.40;;
44048;SDS011;29717;47.028;15.470;2023-05-07T01:08:05;9.20;;;8.40;;
44048;SDS011;29717;47.028;15.470;2023-05-07T01:10:32;9.25;;;8.35;;
44048;SDS011;29717;47.028;15.470;2023-05-07T01:13:02;10.18;;;8.18;;
44048;SDS011;29717;47.028;15.470;2023-05-07T01:15:29;9.15;;;8.00;;
44048;SDS011;29717;47.028;15.470;2023-05-07T01:17:56;9.18;;;7.57;;
44048;SDS011;29717;47.028;15.470;2023-05-07T01:20:23;8.00;;;7.32;;
44048;SDS011;29717;47.028;15.470;2023-05-07T01:22:52;8.88;;;8.07;;
44048;SDS011;29717;47.028;15.470;2023-05-07T01:25:19;8.25;;;7.45;;
44048;SDS011;29717;47.028;15.470;2023-05-07T01:27:47;8.63;;;7.82;;
44048;SDS011;29717;47.028;15.470;2023-05-07T01:30:14;8.63;;;7.82;;
44048;SDS011;29717;47.028;15.470;2023-05-07T01:32:41;8.50;;;7.70;;
44048;SDS011;29717;47.028;15.470;2023-05-07T01:35:11;8.15;;;7.35;;
44048;SDS011;29717;47.028;15.470;2023-05-07T01:37:38;8.18;;;7.47;;
44048;SDS011;29717;47.028;15.470;2023-05-07T01:40:08;7.90;;;7.10;;
44048;SDS011;29717;47.028;15.470;2023-05-07T01:42:35;9.10;;;8.30;;
44048;SDS011;29717;47.028;15.470;2023-05-07T01:45:02;8.45;;;7.65;;
44048;SDS011;29717;47.028;15.470;2023-05-07T01:47:29;9.93;;;8.43;;
44048;SDS011;29717;47.028;15.470;2023-05-07T01:49:56;7.70;;;7.00;;
44048;SDS011;29717;47.028;15.470;2023-05-07T01:52:23;10.55;;;8.98;;
44048;SDS011;29717;47.028;15.470;2023-05-07T01:54:50;8.77;;;7.45;;
44048;SDS011;29717;47.028;15.470;2023-05-07T01:57:19;9.27;;;8.10;;
44048;SDS011;29717;47.028;15.470;2023-05-07T01:59:46;10.27;;;8.40;;
44048;SDS011;29717;47.028;15.470;2023-05-07T02:02:12;10.60;;;9.13;;
44048;SDS011;29717;47.028;15.470;2023-05-07T02:04:39;10.57;;;9.48;;
44048;SDS011;29717;47.028;15.470;2023-05-07T02:07:06;11.77;;;10.23;;
44048;SDS011;29717;47.028;15.470;2023-05-07T02:09:33;10.65;;;9.52;;
44048;SDS011;29717;47.028;15.470;2023-05-07T02:12:00;10.88;;;9.77;;
44048;SDS011;29717;47.028;15.470;2023-05-07T02:14:28;11.07;;;9.45;;
44048;SDS011;29717;47.028;15.470;2023-05-07T02:16:55;10.95;;;9.88;;
44048;SDS011;29717;47.028;15.470;2023-05-07T02:19:22;10.05;;;9.05;;
44048;SDS011;29717;47.028;15.470;2023-05-07T02:21:49;11.20;;;10.02;;
44048;SDS011;29717;47.028;15.470;2023-05-07T02:24:16;10.90;;;9.77;;
44048;SDS011;29717;47.028;15.470;2023-05-07T02:26:43;9.68;;;8.73;;
44048;SDS011;29717;47.028;15.470;2023-05-07T02:29:10;8.88;;;7.57;;
44048;SDS011;29717;47.028;15.470;2023-05-07T02:31:38;9.85;;;8.93;;
44048;SDS011;29717;47.028;15.470;2023-05-07T02:34:05;11.32;;;10.23;;
44048;SDS011;29717;47.028;15.470;2023-05-07T02:36:32;10.75;;;9.10;;
44048;SDS011;29717;47.028;15.470;2023-05-07T02:38:58;12.23;;;9.40;;
44048;SDS011;29717;47.028;15.470;2023-05-07T02:41:25;9.38;;;8.23;;
44048;SDS011;29717;47.028;15.470;2023-05-07T02:43:53;9.73;;;8.50;;
44048;SDS011;29717;47.028;15.470;2023-05-07T02:46:20;9.40;;;8.43;;
44048;SDS011;29717;47.028;15.470;2023-05-07T02:48:48;8.23;;;7.43;;
44048;SDS011;29717;47.028;15.470;2023-05-07T02:51:17;8.02;;;7.22;;
44048;SDS011;29717;47.028;15.470;2023-05-07T02:53:44;8.38;;;7.57;;
44048;SDS011;29717;47.028;15.470;2023-05-07T02:56:11;9.02;;;7.50;;
44048;SDS011;29717;47.028;15.470;2023-05-07T02:58:37;7.53;;;6.72;;
44048;SDS011;29717;47.028;15.470;2023-05-07T03:01:05;7.75;;;6.85;;
44048;SDS011;29717;47.028;15.470;2023-05-07T03:03:32;7.45;;;6.68;;
44048;SDS011;29717;47.028;15.470;2023-05-07T03:06:00;8.05;;;7.07;;
44048;SDS011;29717;47.028;15.470;2023-05-07T03:08:27;9.57;;;8.57;;
44048;SDS011;29717;47.028;15.470;2023-05-07T03:10:54;9.02;;;8.13;;
44048;SDS011;29717;47.028;15.470;2023-05-07T03:13:21;11.45;;;8.57;;
44048;SDS011;29717;47.028;15.470;2023-05-07T03:15:48;9.07;;;8.27;;
44048;SDS011;29717;47.028;15.470;2023-05-07T03:18:14;9.57;;;8.65;;
44048;SDS011;29717;47.028;15.470;2023-05-07T03:20:41;10.80;;;9.80;;
44048;SDS011;29717;47.028;15.470;2023-05-07T03:23:09;11.02;;;9.52;;
44048;SDS011;29717;47.028;15.470;2023-05-07T03:25:36;10.48;;;9.45;;
44048;SDS011;29717;47.028;15.470;2023-05-07T03:28:03;11.20;;;10.10;;
44048;SDS011;29717;47.028;15.470;2023-05-07T03:30:30;13.25;;;11.85;;
44048;SDS011;29717;47.028;15.470;2023-05-07T03:32:57;11.98;;;10.77;;
44048;SDS011;29717;47.028;15.470;2023-05-07T03:35:24;12.60;;;11.38;;
44048;SDS011;29717;47.028;15.470;2023-05-07T03:37:51;16.67;;;12.15;;
44048;SDS011;29717;47.028;15.470;2023-05-07T03:40:19;13.68;;;10.77;;
44048;SDS011;29717;47.028;15.470;2023-05-07T03:42:46;19.63;;;11.27;;
44048;SDS011;29717;47.028;15.470;2023-05-07T03:45:14;14.65;;;10.35;;
44048;SDS011;29717;47.028;15.470;2023-05-07T03:47:41;11.60;;;10.40;;
44048;SDS011;29717;47.028;15.470;2023-05-07T03:50:08;10.18;;;9.18;;
44048;SDS011;29717;47.028;15.470;2023-05-07T03:52:35;10.50;;;9.40;;
44048;SDS011;29717;47.028;15.470;2023-05-07T03:55:03;10.85;;;9.80;;
44048;SDS011;29717;47.028;15.470;2023-05-07T03:57:32;11.43;;;10.32;;
44048;SDS011;29717;47.028;15.470;2023-05-07T03:59:59;10.40;;;9.40;;
44048;SDS011;29717;47.028;15.470;2023-05-07T04:02:26;10.20;;;9.20;;
44048;SDS011;29717;47.028;15.470;2023-05-07T04:04:53;10.75;;;9.75;;
44048;SDS011;29717;47.028;15.470;2023-05-07T04:07:19;11.50;;;8.88;;
44048;SDS011;29717;47.028;15.470;2023-05-07T04:09:46;10.68;;;9.68;;
44048;SDS011;29717;47.028;15.470;2023-05-07T04:12:14;12.23;;;9.40;;
44048;SDS011;29717;47.028;15.470;2023-05-07T04:14:43;10.05;;;9.13;;
44048;SDS011;29717;47.028;15.470;2023-05-07T04:17:09;10.43;;;9.32;;
44048;SDS011;29717;47.028;15.470;2023-05-07T04:19:36;9.43;;;8.55;;
44048;SDS011;29717;47.028;15.470;2023-05-07T04:22:03;10.82;;;8.50;;
44048;SDS011;29717;47.028;15.470;2023-05-07T04:24:31;9.48;;;8.40;;
44048;SDS011;29717;47.028;15.470;2023-05-07T04:26:57;11.05;;;8.52;;
44048;SDS011;29717;47.028;15.470;2023-05-07T04:29:25;8.90;;;7.97;;
44048;SDS011;29717;47.028;15.470;2023-05-07T04:31:53;8.00;;;7.20;;
44048;SDS011;29717;47.028;15.470;2023-05-07T04:34:21;7.28;;;6.60;;
44048;SDS011;29717;47.028;15.470;2023-05-07T04:36:48;7.00;;;6.20;;
44048;SDS011;29717;47.028;15.470;2023-05-07T04:39:15;9.57;;;6.22;;
44048;SDS011;29717;47.028;15.470;2023-05-07T04:41:42;11.90;;;6.43;;
44048;SDS011;29717;47.028;15.470;2023-05-07T04:44:08;6.32;;;5.82;;
44048;SDS011;29717;47.028;15.470;2023-05-07T04:46:36;7.03;;;6.38;;
44048;SDS011;29717;47.028;15.470;2023-05-07T04:49:04;6.15;;;5.63;;
44048;SDS011;29717;47.028;15.470;2023-05-07T04:51:32;7.28;;;6.07;;
44048;SDS011;29717;47.028;15.470;2023-05-07T04:53:59;6.65;;;6.05;;
44048;SDS011;29717;47.028;15.470;2023-05-07T04:56:27;6.32;;;5.72;;
44048;SDS011;29717;47.028;15.470;2023-05-07T04:58:54;5.47;;;4.97;;
44048;SDS011;29717;47.028;15.470;2023-05-07T05:01:21;6.28;;;5.47;;
44048;SDS011;29717;47.028;15.470;2023-05-07T05:03:48;6.00;;;4.88;;
44048;SDS011;29717;47.028;15.470;2023-05-07T05:06:16;5.80;;;5.30;;
44048;SDS011;29717;47.028;15.470;2023-05-07T05:08:43;6.35;;;4.90;;
44048;SDS011;29717;47.028;15.470;2023-05-07T05:11:10;5.90;;;5.22;;
44048;SDS011;29717;47.028;15.470;2023-05-07T05:13:36;5.13;;;4.70;;
44048;SDS011;29717;47.028;15.470;2023-05-07T05:16:04;5.18;;;4.70;;
44048;SDS011;29717;47.028;15.470;2023-05-07T05:18:31;5.13;;;4.63;;
44048;SDS011;29717;47.028;15.470;2023-05-07T05:20:58;6.32;;;4.85;;
44048;SDS011;29717;47.028;15.470;2023-05-07T05:23:26;4.80;;;4.38;;
44048;SDS011;29717;47.028;15.470;2023-05-07T05:25:55;4.80;;;4.32;;
44048;SDS011;29717;47.028;15.470;2023-05-07T05:28:22;4.57;;;4.18;;
44048;SDS011;29717;47.028;15.470;2023-05-07T05:30:48;4.70;;;3.97;;
44048;SDS011;29717;47.028;15.470;2023-05-07T05:33:15;4.22;;;3.83;;
44048;SDS011;29717;47.028;15.470;2023-05-07T05:35:43;7.43;;;4.20;;
44048;SDS011;29717;47.028;15.470;2023-05-07T05:38:10;4.25;;;3.85;;
44048;SDS011;29717;47.028;15.470;2023-05-07T05:40:39;5.22;;;3.88;;
44048;SDS011;29717;47.028;15.470;2023-05-07T05:43:05;4.45;;;3.80;;
44048;SDS011;29717;47.028;15.470;2023-05-07T05:45:32;4.50;;;3.90;;
44048;SDS011;29717;47.028;15.470;2023-05-07T05:47:59;4.07;;;3.67;;
44048;SDS011;29717;47.028;15.470;2023-05-07T05:50:26;4.78;;;3.70;;
44048;SDS011;29717;47.028;15.470;2023-05-07T05:52:53;4.60;;;3.95;;
44048;SDS011;29717;47.028;15.470;2023-05-07T05:55:20;4.15;;;3.72;;
44048;SDS011;29717;47.028;15.470;2023-05-07T05:57:48;3.60;;;3.30;;
44048;SDS011;29717;47.028;15.470;2023-05-07T06:00:15;4.47;;;3.78;;
44048;SDS011;29717;47.028;15.470;2023-05-07T06:02:42;4.82;;;3.50;;
44048;SDS011;29717;47.028;15.470;2023-05-07T06:05:09;6.15;;;3.80;;
44048;SDS011;29717;47.028;15.470;2023-05-07T06:07:36;3.65;;;3.35;;
44048;SDS011;29717;47.028;15.470;2023-05-07T06:10:03;3.80;;;3.50;;
44048;SDS011;29717;47.028;15.470;2023-05-07T06:12:30;3.65;;;3.35;;
44048;SDS011;29717;47.028;15.470;2023-05-07T06:14:58;3.60;;;3.30;;
44048;SDS011;29717;47.028;15.470;2023-05-07T06:17:25;3.83;;;3.53;;
44048;SDS011;29717;47.028;15.470;2023-05-07T06:19:52;4.00;;;3.67;;
44048;SDS011;29717;47.028;15.470;2023-05-07T06:22:19;4.00;;;3.60;;
44048;SDS011;29717;47.028;15.470;2023-05-07T06:24:46;3.08;;;2.78;;
44048;SDS011;29717;47.028;15.470;2023-05-07T06:27:14;3.17;;;2.88;;
44048;SDS011;29717;47.028;15.470;2023-05-07T06:29:41;4.25;;;3.15;;
44048;SDS011;29717;47.028;15.470;2023-05-07T06:32:09;4.18;;;3.20;;
44048;SDS011;29717;47.028;15.470;2023-05-07T06:34:37;3.40;;;2.90;;
44048;SDS011;29717;47.028;15.470;2023-05-07T06:37:04;2.97;;;2.70;;
44048;SDS011;29717;47.028;15.470;2023-05-07T06:39:31;3.38;;;3.08;;
44048;SDS011;29717;47.028;15.470;2023-05-07T06:41:58;6.05;;;3.60;;
44048;SDS011;29717;47.028;15.470;2023-05-07T06:44:25;3.58;;;3.15;;
44048;SDS011;29717;47.028;15.470;2023-05-07T06:46:52;3.03;;;2.75;;
44048;SDS011;29717;47.028;15.470;2023-05-07T06:49:20;3.30;;;3.00;;
44048;SDS011;29717;47.028;15.470;2023-05-07T06:51:47;2.88;;;2.58;;
44048;SDS011;29717;47.028;15.470;2023-05-07T06:54:13;2.90;;;2.70;;
44048;SDS011;29717;47.028;15.470;2023-05-07T06:56:40;2.97;;;2.65;;
44048;SDS011;29717;47.028;15.470;2023-05-07T06:59:08;3.65;;;2.70;;
44048;SDS011;29717;47.028;15.470;2023-05-07T07:01:35;2.92;;;2.70;;
44048;SDS011;29717;47.028;15.470;2023-05-07T07:04:02;2.60;;;2.40;;
44048;SDS011;29717;47.028;15.470;2023-05-07T07:06:30;2.70;;;2.50;;
44048;SDS011;29717;47.028;15.470;2023-05-07T07:08:57;2.40;;;2.20;;
44048;SDS011;29717;47.028;15.470;2023-05-07T07:11:24;3.15;;;2.50;;
44048;SDS011;29717;47.028;15.470;2023-05-07T07:13:51;2.45;;;2.25;;
44048;SDS011;29717;47.028;15.470;2023-05-07T07:16:19;3.13;;;2.47;;
44048;SDS011;29717;47.028;15.470;2023-05-07T07:18:49;2.67;;;2.33;;
44048;SDS011;29717;47.028;15.470;2023-05-07T07:21:15;2.78;;;2.58;;
44048;SDS011;29717;47.028;15.470;2023-05-07T07:23:44;2.15;;;2.05;;
44048;SDS011;29717;47.028;15.470;2023-05-07T07:26:11;2.80;;;2.60;;
44048;SDS011;29717;47.028;15.470;2023-05-07T07:28:47;2.58;;;2.38;;
44048;SDS011;29717;47.028;15.470;2023-05-07T07:31:14;4.70;;;3.00;;
44048;SDS011;29717;47.028;15.470;2023-05-07T07:33:41;2.65;;;2.45;;
44048;SDS011;29717;47.028;15.470;2023-05-07T07:36:09;3.00;;;2.55;;
44048;SDS011;29717;47.028;15.470;2023-05-07T07:38:36;3.65;;;2.80;;
44048;SDS011;29717;47.028;15.470;2023-05-07T07:43:35;2.83;;;2.63;;
44048;SDS011;29717;47.028;15.470;2023-05-07T07:46:02;2.50;;;2.30;;
44048;SDS011;29717;47.028;15.470;2023-05-07T07:48:29;2.50;;;2.30;;
44048;SDS011;29717;47.028;15.470;2023-05-07T07:51:08;4.10;;;2.40;;
44048;SDS011;29717;47.028;15.470;2023-05-07T07:53:36;2.63;;;2.42;;
44048;SDS011;29717;47.028;15.470;2023-05-07T07:56:13;2.78;;;2.58;;
44048;SDS011;29717;47.028;15.470;2023-05-07T07:58:42;2.25;;;2.10;;
44048;SDS011;29717;47.028;15.470;2023-05-07T08:03:40;3.28;;;2.55;;
44048;SDS011;29717;47.028;15.470;2023-05-07T08:06:21;2.67;;;2.47;;
44048;SDS011;29717;47.028;15.470;2023-05-07T08:08:48;3.00;;;2.30;;
44048;SDS011;29717;47.028;15.470;2023-05-07T08:11:24;2.67;;;2.47;;
44048;SDS011;29717;47.028;15.470;2023-05-07T08:13:55;2.65;;;2.45;;
44048;SDS011;29717;47.028;15.470;2023-05-07T08:16:36;2.15;;;2.00;;
44048;SDS011;29717;47.028;15.470;2023-05-07T08:19:03;4.10;;;2.50;;
44048;SDS011;29717;47.028;15.470;2023-05-07T08:21:30;2.55;;;2.35;;
44048;SDS011;29717;47.028;15.470;2023-05-07T08:23:57;2.58;;;2.38;;
44048;SDS011;29717;47.028;15.470;2023-05-07T08:26:27;2.47;;;2.20;;
44048;SDS011;29717;47.028;15.470;2023-05-07T08:28:58;3.05;;;2.85;;
44048;SDS011;29717;47.028;15.470;2023-05-07T08:31:34;2.08;;;1.98;;
44048;SDS011;29717;47.028;15.470;2023-05-07T08:34:41;2.50;;;2.30;;
44048;SDS011;29717;47.028;15.470;2023-05-07T08:37:09;2.08;;;1.98;;
44048;SDS011;29717;47.028;15.470;2023-05-07T08:39:36;2.22;;;2.00;;
44048;SDS011;29717;47.028;15.470;2023-05-07T08:44:48;2.40;;;2.20;;
44048;SDS011;29717;47.028;15.470;2023-05-07T08:47:29;1.85;;;1.70;;
44048;SDS011;29717;47.028;15.470;2023-05-07T08:49:59;2.50;;;2.30;;
44048;SDS011;29717;47.028;15.470;2023-05-07T08:52:26;2.33;;;2.13;;
44048;SDS011;29717;47.028;15.470;2023-05-07T08:54:53;2.55;;;2.20;;
44048;SDS011;29717;47.028;15.470;2023-05-07T08:57:20;2.17;;;2.05;;
44048;SDS011;29717;47.028;15.470;2023-05-07T08:59:51;1.42;;;1.33;;
44048;SDS011;29717;47.028;15.470;2023-05-07T09:02:18;2.17;;;1.80;;
44048;SDS011;29717;47.028;15.470;2023-05-07T09:04:45;2.33;;;2.10;;
44048;SDS011;29717;47.028;15.470;2023-05-07T09:07:11;2.75;;;1.95;;
44048;SDS011;29717;47.028;15.470;2023-05-07T09:09:38;2.00;;;1.80;;
44048;SDS011;29717;47.028;15.470;2023-05-07T09:12:05;3.33;;;1.70;;
44048;SDS011;29717;47.028;15.470;2023-05-07T09:14:32;3.80;;;1.75;;
44048;SDS011;29717;47.028;15.470;2023-05-07T09:17:01;1.85;;;1.75;;
44048;SDS011;29717;47.028;15.470;2023-05-07T09:19:28;2.20;;;2.00;;
44048;SDS011;29717;47.028;15.470;2023-05-07T09:21:58;3.45;;;2.00;;
44048;SDS011;29717;47.028;15.470;2023-05-07T09:24:26;4.50;;;2.20;;
44048;SDS011;29717;47.028;15.470;2023-05-07T09:26:53;11.68;;;2.20;;
44048;SDS011;29717;47.028;15.470;2023-05-07T09:29:20;5.18;;;2.47;;
44048;SDS011;29717;47.028;15.470;2023-05-07T09:31:47;2.08;;;1.90;;
44048;SDS011;29717;47.028;15.470;2023-05-07T09:34:15;4.72;;;2.22;;
44048;SDS011;29717;47.028;15.470;2023-05-07T09:36:42;2.13;;;2.00;;
44048;SDS011;29717;47.028;15.470;2023-05-07T09:39:09;1.80;;;1.70;;
44048;SDS011;29717;47.028;15.470;2023-05-07T09:41:43;3.03;;;2.10;;
44048;SDS011;29717;47.028;15.470;2023-05-07T09:44:09;3.28;;;1.70;;
44048;SDS011;29717;47.028;15.470;2023-05-07T09:46:36;2.42;;;1.88;;
44048;SDS011;29717;47.028;15.470;2023-05-07T09:49:05;2.28;;;2.08;;
44048;SDS011;29717;47.028;15.470;2023-05-07T09:51:39;2.20;;;2.00;;
44048;SDS011;29717;47.028;15.470;2023-05-07T09:54:07;2.03;;;1.92;;
44048;SDS011;29717;47.028;15.470;2023-05-07T09:56:34;2.20;;;2.00;;
44048;SDS011;29717;47.028;15.470;2023-05-07T09:59:03;2.03;;;1.92;;
44048;SDS011;29717;47.028;15.470;2023-05-07T10:01:31;2.28;;;2.08;;
44048;SDS011;29717;47.028;15.470;2023-05-07T10:03:58;2.65;;;1.90;;
44048;SDS011;29717;47.028;15.470;2023-05-07T10:06:25;3.17;;;1.80;;
44048;SDS011;29717;47.028;15.470;2023-05-07T10:08:54;2.33;;;2.13;;
44048;SDS011;29717;47.028;15.470;2023-05-07T10:11:22;1.73;;;1.63;;
44048;SDS011;29717;47.028;15.470;2023-05-07T10:13:49;2.08;;;1.98;;
44048;SDS011;29717;47.028;15.470;2023-05-07T10:16:16;2.22;;;2.03;;
44048;SDS011;29717;47.028;15.470;2023-05-07T10:18:43;11.77;;;2.97;;
44048;SDS011;29717;47.028;15.470;2023-05-07T10:21:11;2.05;;;1.55;;
44048;SDS011;29717;47.028;15.470;2023-05-07T10:23:40;2.33;;;1.98;;
44048;SDS011;29717;47.028;15.470;2023-05-07T10:26:08;2.15;;;1.90;;
44048;SDS011;29717;47.028;15.470;2023-05-07T10:28:36;1.85;;;1.52;;
44048;SDS011;29717;47.028;15.470;2023-05-07T10:31:08;1.80;;;1.70;;
44048;SDS011;29717;47.028;15.470;2023-05-07T10:33:38;1.58;;;1.33;;
44048;SDS011;29717;47.028;15.470;2023-05-07T10:36:06;2.90;;;1.52;;
44048;SDS011;29717;47.028;15.470;2023-05-07T10:38:34;1.50;;;1.40;;
44048;SDS011;29717;47.028;15.470;2023-05-07T10:41:01;1.35;;;1.25;;
44048;SDS011;29717;47.028;15.470;2023-05-07T10:43:42;7.22;;;1.70;;
44048;SDS011;29717;47.028;15.470;2023-05-07T10:46:09;1.50;;;1.40;;
44048;SDS011;29717;47.028;15.470;2023-05-07T10:48:46;1.60;;;1.50;;
44048;SDS011;29717;47.028;15.470;2023-05-07T10:51:33;1.60;;;1.50;;
44048;SDS011;29717;47.028;15.470;2023-05-07T10:54:21;2.47;;;1.50;;
44048;SDS011;29717;47.028;15.470;2023-05-07T10:56:49;1.65;;;1.55;;
44048;SDS011;29717;47.028;15.470;2023-05-07T10:59:33;1.60;;;1.50;;
44048;SDS011;29717;47.028;15.470;2023-05-07T11:02:07;2.08;;;1.90;;
44048;SDS011;29717;47.028;15.470;2023-05-07T11:04:35;1.85;;;1.45;;
44048;SDS011;29717;47.028;15.470;2023-05-07T11:09:55;1.55;;;1.45;;
44048;SDS011;29717;47.028;15.470;2023-05-07T11:15:11;1.40;;;1.30;;
44048;SDS011;29717;47.028;15.470;2023-05-07T11:17:51;1.60;;;1.50;;
44048;SDS011;29717;47.028;15.470;2023-05-07T11:20:19;1.50;;;1.40;;
44048;SDS011;29717;47.028;15.470;2023-05-07T11:22:46;1.52;;;1.42;;
44048;SDS011;29717;47.028;15.470;2023-05-07T11:25:17;2.45;;;1.40;;
44048;SDS011;29717;47.028;15.470;2023-05-07T11:27:44;1.98;;;1.55;;
44048;SDS011;29717;47.028;15.470;2023-05-07T11:30:18;1.42;;;1.33;;
44048;SDS011;29717;47.028;15.470;2023-05-07T11:32:48;1.60;;;1.50;;
44048;SDS011;29717;47.028;15.470;2023-05-07T11:35:18;1.55;;;1.45;;
44048;SDS011;29717;47.028;15.470;2023-05-07T11:37:49;1.40;;;1.30;;
44048;SDS011;29717;47.028;15.470;2023-05-07T11:40:16;1.52;;;1.40;;
44048;SDS011;29717;47.028;15.470;2023-05-07T11:42:43;2.25;;;1.52;;
44048;SDS011;29717;47.028;15.470;2023-05-07T11:45:10;1.92;;;1.60;;
44048;SDS011;29717;47.028;15.470;2023-05-07T11:47:41;1.50;;;1.40;;
44048;SDS011;29717;47.028;15.470;2023-05-07T11:50:08;1.73;;;1.50;;
44048;SDS011;29717;47.028;15.470;2023-05-07T11:52:36;1.73;;;1.60;;
44048;SDS011;29717;47.028;15.470;2023-05-07T11:55:04;2.17;;;1.88;;
44048;SDS011;29717;47.028;15.470;2023-05-07T11:57:32;1.70;;;1.60;;
44048;SDS011;29717;47.028;15.470;2023-05-07T11:59:59;1.85;;;1.75;;
44048;SDS011;29717;47.028;15.470;2023-05-07T12:02:30;1.50;;;1.40;;
44048;SDS011;29717;47.028;15.470;2023-05-07T12:05:00;3.10;;;1.95;;
44048;SDS011;29717;47.028;15.470;2023-05-07T12:07:27;2.00;;;1.90;;
44048;SDS011;29717;47.028;15.470;2023-05-07T12:09:55;2.05;;;1.83;;
44048;SDS011;29717;47.028;15.470;2023-05-07T12:12:23;2.65;;;1.85;;
44048;SDS011;29717;47.028;15.470;2023-05-07T12:14:50;2.90;;;1.70;;
44048;SDS011;29717;47.028;15.470;2023-05-07T12:17:19;4.15;;;1.95;;
44048;SDS011;29717;47.028;15.470;2023-05-07T12:19:53;2.13;;;2.00;;
44048;SDS011;29717;47.028;15.470;2023-05-07T12:22:28;1.95;;;1.77;;
44048;SDS011;29717;47.028;15.470;2023-05-07T12:25:01;2.33;;;1.90;;
44048;SDS011;29717;47.028;15.470;2023-05-07T12:27:28;1.60;;;1.50;;
44048;SDS011;29717;47.028;15.470;2023-05-07T12:29:56;2.03;;;1.88;;
44048;SDS011;29717;47.028;15.470;2023-05-07T12:32:24;2.00;;;1.90;;
44048;SDS011;29717;47.028;15.470;2023-05-07T12:34:53;2.70;;;1.70;;
44048;SDS011;29717;47.028;15.470;2023-05-07T12:37:22;2.30;;;2.15;;
44048;SDS011;29717;47.028;15.470;2023-05-07T12:40:02;2.35;;;2.20;;
44048;SDS011;29717;47.028;15.470;2023-05-07T12:42:32;2.08;;;1.88;;
44048;SDS011;29717;47.028;15.470;2023-05-07T12:44:59;2.05;;;1.90;;
44048;SDS011;29717;47.028;15.470;2023-05-07T12:47:28;1.88;;;1.60;;
44048;SDS011;29717;47.028;15.470;2023-05-07T12:49:55;2.45;;;1.83;;
44048;SDS011;29717;47.028;15.470;2023-05-07T12:52:22;1.92;;;1.70;;
44048;SDS011;29717;47.028;15.470;2023-05-07T12:54:49;2.28;;;2.10;;
44048;SDS011;29717;47.028;15.470;2023-05-07T12:57:18;2.33;;;2.15;;
44048;SDS011;29717;47.028;15.470;2023-05-07T12:59:46;2.20;;;2.10;;
44048;SDS011;29717;47.028;15.470;2023-05-07T13:02:13;2.97;;;2.13;;
44048;SDS011;29717;47.028;15.470;2023-05-07T13:04:40;3.05;;;2.13;;
44048;SDS011;29717;47.028;15.470;2023-05-07T13:07:07;2.40;;;2.20;;
44048;SDS011;29717;47.028;15.470;2023-05-07T13:09:34;2.80;;;1.95;;
44048;SDS011;29717;47.028;15.470;2023-05-07T13:12:02;2.13;;;2.03;;
44048;SDS011;29717;47.028;15.470;2023-05-07T13:14:30;2.30;;;2.10;;
44048;SDS011;29717;47.028;15.470;2023-05-07T13:16:57;2.25;;;2.15;;
44048;SDS011;29717;47.028;15.470;2023-05-07T13:19:24;2.28;;;2.13;;
44048;SDS011;29717;47.028;15.470;2023-05-07T13:21:52;3.72;;;2.20;;
44048;SDS011;29717;47.028;15.470;2023-05-07T13:24:19;2.40;;;2.20;;
44048;SDS011;29717;47.028;15.470;2023-05-07T13:26:46;6.07;;;2.67;;
44048;SDS011;29717;47.028;15.470;2023-05-07T13:29:13;2.42;;;2.33;;
44048;SDS011;29717;47.028;15.470;2023-05-07T13:31:41;2.60;;;2.40;;
44048;SDS011;29717;47.028;15.470;2023-05-07T13:34:09;3.97;;;2.40;;
44048;SDS011;29717;47.028;15.470;2023-05-07T13:36:36;2.70;;;2.50;;
44048;SDS011;29717;47.028;15.470;2023-05-07T13:39:05;3.60;;;3.30;;
44048;SDS011;29717;47.028;15.470;2023-05-07T13:41:31;4.53;;;3.35;;
44048;SDS011;29717;47.028;15.470;2023-05-07T13:43:58;3.80;;;3.50;;
44048;SDS011;29717;47.028;15.470;2023-05-07T13:46:25;3.80;;;3.50;;
44048;SDS011;29717;47.028;15.470;2023-05-07T13:48:53;4.30;;;3.90;;
44048;SDS011;29717;47.028;15.470;2023-05-07T13:51:20;6.38;;;4.10;;
44048;SDS011;29717;47.028;15.470;2023-05-07T13:53:47;5.50;;;4.60;;
44048;SDS011;29717;47.028;15.470;2023-05-07T13:56:14;4.93;;;4.53;;
44048;SDS011;29717;47.028;15.470;2023-05-07T13:58:41;5.78;;;5.28;;
44048;SDS011;29717;47.028;15.470;2023-05-07T14:01:08;6.25;;;5.65;;
44048;SDS011;29717;47.028;15.470;2023-05-07T14:03:35;9.18;;;5.88;;
44048;SDS011;29717;47.028;15.470;2023-05-07T14:06:06;9.35;;;7.40;;
44048;SDS011;29717;47.028;15.470;2023-05-07T14:08:33;8.60;;;7.53;;
44048;SDS011;29717;47.028;15.470;2023-05-07T14:11:00;7.47;;;6.78;;
44048;SDS011;29717;47.028;15.470;2023-05-07T14:13:26;11.32;;;7.43;;
44048;SDS011;29717;47.028;15.470;2023-05-07T14:15:55;9.48;;;8.30;;
44048;SDS011;29717;47.028;15.470;2023-05-07T14:18:22;9.80;;;8.77;;
44048;SDS011;29717;47.028;15.470;2023-05-07T14:20:49;9.23;;;8.38;;
44048;SDS011;29717;47.028;15.470;2023-05-07T14:23:17;9.38;;;8.48;;
44048;SDS011;29717;47.028;15.470;2023-05-07T14:25:45;8.63;;;7.75;;
44048;SDS011;29717;47.028;15.470;2023-05-07T14:28:13;14.50;;;12.57;;
44048;SDS011;29717;47.028;15.470;2023-05-07T14:30:39;9.57;;;8.77;;
44048;SDS011;29717;47.028;15.470;2023-05-07T14:33:06;11.57;;;8.32;;
44048;SDS011;29717;47.028;15.470;2023-05-07T14:44:24;9.38;;;8.35;;
44048;SDS011;29717;47.028;15.470;2023-05-07T14:46:51;8.13;;;7.43;;
44048;SDS011;29717;47.028;15.470;2023-05-07T14:49:18;9.35;;;7.63;;
44048;SDS011;29717;47.028;15.470;2023-05-07T14:51:45;10.70;;;8.10;;
44048;SDS011;29717;47.028;15.470;2023-05-07T14:54:12;9.18;;;8.38;;
44048;SDS011;29717;47.028;15.470;2023-05-07T14:56:40;9.38;;;8.48;;
44048;SDS011;29717;47.028;15.470;2023-05-07T14:59:07;9.00;;;8.10;;